createdAt,value
2023-05-20T00:02:30.658Z,16.04
2023-05-20T00:05:00.794Z,15.98
2023-05-20T00:07:30.966Z,15.90
2023-05-20T00:10:01.103Z,15.86
2023-05-20T00:12:31.241Z,15.83
2023-05-20T00:15:01.436Z,15.78
2023-05-20T00:17:34.120Z,15.73
2023-05-20T00:20:05.923Z,15.72
2023-05-20T00:22:36.203Z,15.75
2023-05-20T00:25:06.519Z,15.77
2023-05-20T00:27:36.640Z,15.77
2023-05-20T00:30:07.074Z,15.77
2023-05-20T00:32:39.982Z,15.77
2023-05-20T00:35:11.855Z,15.69
2023-05-20T00:37:41.746Z,15.67
2023-05-20T00:40:14.951Z,15.63
2023-05-20T00:42:45.590Z,15.58
2023-05-20T00:45:15.805Z,15.58
2023-05-20T00:47:48.972Z,15.62
2023-05-20T00:50:21.110Z,15.60
2023-05-20T00:52:51.957Z,15.57
2023-05-20T00:55:22.285Z,15.52
2023-05-20T00:57:53.134Z,15.51
2023-05-20T01:00:23.201Z,15.49
2023-05-20T01:02:56.260Z,15.49
2023-05-20T01:05:26.270Z,15.46
2023-05-20T01:07:56.909Z,15.45
2023-05-20T01:10:32.182Z,15.39
2023-05-20T01:13:07.747Z,15.35
2023-05-20T01:15:38.829Z,15.31
2023-05-20T01:18:13.714Z,15.29
2023-05-20T01:20:46.203Z,15.23
2023-05-20T01:23:18.779Z,15.17
2023-05-20T01:25:48.889Z,15.06
2023-05-20T01:28:19.400Z,14.96
2023-05-20T01:30:55.453Z,14.88
2023-05-20T01:33:28.905Z,14.83
2023-05-20T01:35:59.657Z,14.83
2023-05-20T01:38:33.187Z,14.85
2023-05-20T01:41:05.982Z,14.84
2023-05-20T01:43:38.717Z,14.82
2023-05-20T01:46:09.850Z,14.79
2023-05-20T01:48:39.849Z,14.79
2023-05-20T01:51:09.918Z,14.76
2023-05-20T01:53:42.470Z,14.73
2023-05-20T01:56:12.416Z,14.71
2023-05-20T01:58:42.398Z,14.68
2023-05-20T02:01:12.457Z,14.65
2023-05-20T02:03:42.392Z,14.56
2023-05-20T02:06:12.495Z,14.46
2023-05-20T02:08:45.187Z,14.42
2023-05-20T02:11:15.102Z,14.36
2023-05-20T02:13:45.099Z,14.32
2023-05-20T02:16:15.149Z,14.31
2023-05-20T02:18:45.702Z,14.33
2023-05-20T02:21:15.712Z,14.29
2023-05-20T02:23:48.328Z,14.22
2023-05-20T02:26:18.545Z,14.19
2023-05-20T02:28:51.086Z,14.19
2023-05-20T02:31:21.668Z,14.19
2023-05-20T02:33:51.784Z,14.15
2023-05-20T02:36:24.651Z,14.15
2023-05-20T02:38:57.493Z,14.17
2023-05-20T02:41:27.527Z,14.15
2023-05-20T02:43:57.637Z,14.12
2023-05-20T02:46:27.560Z,14.10
2023-05-20T02:48:57.567Z,14.07
2023-05-20T02:51:28.707Z,14.07
2023-05-20T02:54:01.417Z,14.10
2023-05-20T02:56:32.827Z,14.10
2023-05-20T02:59:03.801Z,14.11
2023-05-20T03:01:34.075Z,14.12
2023-05-20T03:04:04.939Z,14.12
2023-05-20T03:06:34.996Z,14.10
2023-05-20T03:09:07.593Z,14.02
2023-05-20T03:11:37.635Z,13.97
2023-05-20T03:14:07.546Z,13.96
2023-05-20T03:16:37.520Z,13.95
2023-05-20T03:19:07.720Z,13.94
2023-05-20T03:21:38.180Z,13.92
2023-05-20T03:24:10.982Z,13.90
2023-05-20T03:26:43.429Z,13.88
2023-05-20T03:29:13.775Z,13.85
2023-05-20T03:31:44.003Z,13.83
2023-05-20T03:34:14.043Z,13.81
2023-05-20T03:36:44.140Z,13.78
2023-05-20T03:39:16.828Z,13.80
2023-05-20T03:41:47.071Z,13.81
2023-05-20T03:44:17.604Z,13.85
2023-05-20T03:46:47.574Z,13.86
2023-05-20T03:49:17.588Z,13.84
2023-05-20T03:51:48.638Z,13.80
2023-05-20T03:54:21.341Z,13.81
2023-05-20T03:56:52.188Z,13.75
2023-05-20T03:59:22.590Z,13.70
2023-05-20T04:01:52.568Z,13.66
2023-05-20T04:04:22.894Z,13.66
2023-05-20T04:06:53.079Z,13.66
2023-05-20T04:09:25.948Z,13.66
2023-05-20T04:11:55.908Z,13.63
2023-05-20T04:14:26.091Z,13.60
2023-05-20T04:16:57.605Z,13.60
2023-05-20T04:19:28.690Z,13.59
2023-05-20T04:21:59.311Z,13.56
2023-05-20T04:24:32.088Z,13.55
2023-05-20T04:27:02.796Z,13.56
2023-05-20T04:29:34.575Z,13.55
2023-05-20T04:32:04.901Z,13.58
2023-05-20T04:34:35.363Z,13.60
2023-05-20T04:37:08.121Z,13.59
2023-05-20T04:39:41.279Z,13.60
2023-05-20T04:42:11.539Z,13.59
2023-05-20T04:44:42.428Z,13.57
2023-05-20T04:47:12.497Z,13.58
2023-05-20T04:49:42.574Z,13.59
2023-05-20T04:52:12.550Z,13.61
2023-05-20T04:54:45.323Z,13.64
2023-05-20T04:57:15.256Z,13.68
2023-05-20T04:59:45.897Z,13.70
2023-05-20T05:02:16.234Z,13.71
2023-05-20T05:04:46.311Z,13.73
2023-05-20T05:07:16.249Z,13.74
2023-05-20T05:09:48.989Z,13.75
2023-05-20T05:12:18.906Z,13.77
2023-05-20T05:14:48.937Z,13.79
2023-05-20T05:17:18.904Z,13.81
2023-05-20T05:19:49.108Z,13.84
2023-05-20T05:22:19.104Z,13.84
2023-05-20T05:24:51.691Z,13.86
2023-05-20T05:27:23.178Z,13.87
2023-05-20T05:29:53.459Z,13.88
2023-05-20T05:32:23.525Z,13.89
2023-05-20T05:34:53.536Z,13.92
2023-05-20T05:37:23.771Z,13.94
2023-05-20T05:39:56.414Z,14.01
2023-05-20T05:42:26.355Z,14.05
2023-05-20T05:44:56.629Z,14.12
2023-05-20T05:47:30.034Z,14.16
2023-05-20T05:50:00.298Z,14.23
2023-05-20T05:52:30.638Z,14.30
2023-05-20T05:55:03.183Z,14.35
2023-05-20T05:57:33.195Z,14.39
2023-05-20T06:00:04.966Z,14.44
2023-05-20T06:02:36.502Z,14.47
2023-05-20T06:05:06.940Z,14.54
2023-05-20T06:07:36.981Z,14.61
2023-05-20T06:10:10.915Z,14.65
2023-05-20T06:12:40.965Z,14.71
2023-05-20T06:15:12.446Z,14.76
2023-05-20T06:17:42.610Z,14.82
2023-05-20T06:20:13.941Z,14.93
2023-05-20T06:22:44.055Z,15.08
2023-05-20T06:25:17.527Z,15.28
2023-05-20T06:27:47.453Z,15.48
2023-05-20T06:30:18.068Z,15.73
2023-05-20T06:32:49.236Z,15.96
2023-05-20T06:35:19.676Z,16.28
2023-05-20T06:37:49.543Z,16.55
2023-05-20T06:40:22.343Z,16.75
2023-05-20T06:42:52.282Z,16.88
2023-05-20T06:45:22.208Z,17.02
2023-05-20T06:47:54.539Z,17.21
2023-05-20T06:50:25.269Z,17.36
2023-05-20T06:52:55.295Z,17.60
2023-05-20T06:55:27.988Z,17.80
2023-05-20T06:57:58.415Z,17.94
2023-05-20T07:00:28.358Z,17.91
2023-05-20T07:02:58.372Z,18.13
2023-05-20T07:05:29.237Z,18.33
2023-05-20T07:07:59.212Z,18.41
2023-05-20T07:10:32.912Z,18.61
2023-05-20T07:13:03.368Z,18.70
2023-05-20T07:15:33.636Z,18.48
2023-05-20T07:18:04.221Z,18.29
2023-05-20T07:20:34.212Z,18.15
2023-05-20T07:23:04.454Z,18.12
2023-05-20T07:25:37.246Z,18.07
2023-05-20T07:28:07.694Z,18.07
2023-05-20T07:30:37.926Z,18.07
2023-05-20T07:33:07.937Z,18.13
2023-05-20T07:35:37.982Z,18.16
2023-05-20T07:38:08.144Z,18.31
2023-05-20T07:40:40.938Z,18.36
2023-05-20T07:43:11.201Z,18.46
2023-05-20T07:45:44.671Z,18.52
2023-05-20T07:48:14.667Z,18.57
2023-05-20T07:50:44.771Z,18.66
2023-05-20T07:53:14.756Z,18.70
2023-05-20T07:55:48.947Z,18.75
2023-05-20T07:58:19.000Z,18.86
2023-05-20T08:00:49.047Z,18.89
2023-05-20T08:03:19.924Z,18.92
2023-05-20T08:05:49.922Z,18.97
2023-05-20T08:08:19.911Z,19.05
2023-05-20T08:10:54.859Z,19.03
2023-05-20T08:13:24.964Z,19.11
2023-05-20T08:15:56.670Z,19.15
2023-05-20T08:18:27.793Z,19.20
2023-05-20T08:20:58.005Z,19.30
2023-05-20T08:23:28.179Z,19.25
2023-05-20T08:26:02.462Z,19.19
2023-05-20T08:28:32.476Z,19.17
2023-05-20T08:31:04.995Z,19.14
2023-05-20T08:33:35.117Z,19.26
2023-05-20T08:36:05.281Z,19.39
2023-05-20T08:38:38.186Z,19.53
2023-05-20T08:41:10.853Z,19.61
2023-05-20T08:43:40.926Z,19.66
2023-05-20T08:46:11.864Z,19.71
2023-05-20T08:48:43.387Z,19.79
2023-05-20T08:51:14.636Z,19.86
2023-05-20T08:53:44.942Z,19.86
2023-05-20T08:56:19.135Z,19.83
2023-05-20T08:58:49.790Z,19.83
2023-05-20T09:01:19.841Z,19.94
2023-05-20T09:03:49.839Z,20.10
2023-05-20T09:06:21.304Z,20.17
2023-05-20T09:08:52.999Z,20.20
2023-05-20T09:11:25.627Z,20.16
2023-05-20T09:13:56.579Z,20.14
2023-05-20T09:16:28.806Z,20.00
2023-05-20T09:18:59.669Z,20.08
2023-05-20T09:21:30.425Z,20.17
2023-05-20T09:24:00.490Z,20.28
2023-05-20T09:26:33.393Z,20.36
2023-05-20T09:29:03.577Z,20.42
2023-05-20T09:31:35.951Z,20.45
2023-05-20T09:34:06.353Z,20.51
2023-05-20T09:36:38.626Z,20.64
2023-05-20T09:39:12.897Z,20.67
2023-05-20T09:41:53.462Z,20.63
2023-05-20T09:44:25.175Z,20.70
2023-05-20T09:46:56.366Z,20.81
2023-05-20T09:49:28.203Z,20.89
2023-05-20T09:52:00.180Z,20.96
2023-05-20T09:54:31.627Z,20.96
2023-05-20T09:57:06.552Z,20.98
2023-05-20T09:59:38.665Z,20.96
2023-05-20T10:02:10.008Z,20.84
2023-05-20T10:04:46.073Z,20.79
2023-05-20T10:07:42.572Z,20.77
2023-05-20T10:10:24.391Z,20.73
2023-05-20T10:13:09.284Z,20.64
2023-05-20T10:15:51.903Z,20.70
2023-05-20T10:18:36.484Z,20.75
2023-05-20T10:21:09.736Z,20.94
2023-05-20T10:23:40.027Z,20.94
2023-05-20T10:26:10.426Z,20.87
2023-05-20T10:28:44.638Z,20.88
2023-05-20T10:31:25.954Z,20.76
2023-05-20T10:33:57.118Z,20.73
2023-05-20T10:36:30.840Z,20.63
2023-05-20T10:39:02.495Z,20.58
2023-05-20T10:41:35.140Z,20.65
2023-05-20T10:44:09.613Z,20.75
2023-05-20T10:46:57.194Z,20.83
2023-05-20T10:49:37.869Z,20.73
2023-05-20T10:52:10.275Z,20.87
2023-05-20T10:54:46.018Z,20.93
2023-05-20T10:57:16.212Z,20.88
2023-05-20T10:59:48.796Z,20.80
2023-05-20T11:02:19.990Z,20.81
2023-05-20T11:04:50.121Z,20.89
2023-05-20T11:07:30.741Z,20.86
2023-05-20T11:10:01.171Z,20.84
2023-05-20T11:12:31.525Z,20.94
2023-05-20T11:15:07.137Z,20.98
2023-05-20T11:17:37.167Z,21.00
2023-05-20T11:20:08.140Z,20.99
2023-05-20T11:22:38.094Z,21.04
2023-05-20T11:25:09.283Z,21.01
2023-05-20T11:27:42.395Z,21.12
2023-05-20T11:30:17.031Z,21.15
2023-05-20T11:32:47.483Z,21.04
2023-05-20T11:35:26.182Z,21.05
2023-05-20T11:38:00.549Z,21.12
2023-05-20T11:40:38.970Z,21.17
2023-05-20T11:43:17.764Z,21.13
2023-05-20T11:45:55.503Z,21.11
2023-05-20T11:48:25.561Z,21.19
2023-05-20T11:50:57.770Z,21.36
2023-05-20T11:53:28.814Z,21.49
2023-05-20T11:56:01.483Z,21.59
2023-05-20T11:58:33.968Z,21.76
2023-05-20T12:01:21.068Z,21.93
2023-05-20T12:03:52.465Z,21.97
2023-05-20T12:06:23.182Z,22.01
2023-05-20T12:08:53.203Z,22.05
2023-05-20T12:11:23.385Z,22.21
2023-05-20T12:13:53.562Z,22.30
2023-05-20T12:16:29.610Z,22.38
2023-05-20T12:18:59.742Z,22.55
2023-05-20T12:21:30.034Z,22.78
2023-05-20T12:24:00.281Z,22.94
2023-05-20T12:26:32.509Z,22.92
2023-05-20T12:29:04.005Z,22.94
2023-05-20T12:31:36.689Z,23.01
2023-05-20T12:34:14.299Z,23.05
2023-05-20T12:36:44.613Z,23.13
2023-05-20T12:39:15.398Z,23.12
2023-05-20T12:41:45.379Z,23.19
2023-05-20T12:44:19.023Z,23.35
2023-05-20T12:46:51.772Z,23.50
2023-05-20T12:49:21.789Z,23.60
2023-05-20T12:51:51.704Z,23.72
2023-05-20T12:54:21.666Z,23.72
2023-05-20T12:56:51.694Z,23.68
2023-05-20T12:59:21.633Z,23.70
2023-05-20T13:01:54.273Z,23.78
2023-05-20T13:04:24.959Z,23.95
2023-05-20T13:06:58.153Z,23.98
2023-05-20T13:09:28.154Z,24.04
2023-05-20T13:11:58.289Z,24.23
2023-05-20T13:14:28.170Z,24.29
2023-05-20T13:17:03.588Z,24.30
2023-05-20T13:19:34.049Z,24.43
2023-05-20T13:22:04.084Z,24.44
2023-05-20T13:24:34.019Z,24.48
2023-05-20T13:27:04.381Z,24.43
2023-05-20T13:29:34.556Z,24.26
2023-05-20T13:32:07.568Z,24.18
2023-05-20T13:34:37.889Z,24.20
2023-05-20T13:37:08.674Z,24.24
2023-05-20T13:39:38.737Z,24.16
2023-05-20T13:42:09.289Z,24.20
2023-05-20T13:44:39.269Z,24.21
2023-05-20T13:47:12.027Z,24.14
2023-05-20T13:49:44.360Z,24.17
2023-05-20T13:52:14.329Z,24.11
2023-05-20T13:54:47.140Z,24.02
2023-05-20T13:57:17.098Z,24.01
2023-05-20T13:59:47.059Z,24.05
2023-05-20T14:02:20.187Z,24.00
2023-05-20T14:04:50.197Z,24.00
2023-05-20T14:07:20.067Z,23.91
2023-05-20T14:09:50.052Z,23.86
2023-05-20T14:12:20.076Z,23.74
2023-05-20T14:14:52.250Z,23.79
2023-05-20T14:17:24.857Z,23.83
2023-05-20T14:19:54.772Z,23.79
2023-05-20T14:22:24.768Z,23.78
2023-05-20T14:24:54.704Z,23.85
2023-05-20T14:27:24.699Z,24.01
2023-05-20T14:29:54.748Z,24.16
2023-05-20T14:32:27.519Z,24.15
2023-05-20T14:34:57.521Z,24.17
2023-05-20T14:37:28.306Z,24.10
2023-05-20T14:39:58.405Z,24.02
2023-05-20T14:42:28.545Z,24.09
2023-05-20T14:44:58.535Z,24.15
2023-05-20T14:47:33.871Z,24.15
2023-05-20T14:50:03.989Z,24.21
2023-05-20T14:52:34.061Z,24.08
2023-05-20T14:55:04.078Z,24.06
2023-05-20T14:57:34.160Z,23.99
2023-05-20T15:00:04.358Z,23.97
2023-05-20T15:02:37.006Z,24.06
2023-05-20T15:05:07.386Z,24.11
2023-05-20T15:07:37.307Z,24.08
2023-05-20T15:10:08.193Z,24.05
2023-05-20T15:12:38.242Z,24.06
2023-05-20T15:15:09.457Z,24.06
2023-05-20T15:17:42.029Z,24.05
2023-05-20T15:20:13.251Z,24.19
2023-05-20T15:22:45.950Z,24.34
2023-05-20T15:25:15.906Z,24.50
2023-05-20T15:27:46.103Z,24.51
2023-05-20T15:30:17.657Z,24.52
2023-05-20T15:32:50.420Z,24.45
2023-05-20T15:35:21.026Z,24.40
2023-05-20T15:37:50.977Z,24.32
2023-05-20T15:40:21.966Z,24.19
2023-05-20T15:42:51.936Z,24.15
2023-05-20T15:45:22.077Z,24.09
2023-05-20T15:47:55.036Z,24.09
2023-05-20T15:50:26.225Z,24.28
2023-05-20T15:52:59.649Z,24.38
2023-05-20T15:55:29.681Z,24.39
2023-05-20T15:57:59.650Z,24.33
2023-05-20T16:00:29.749Z,24.37
2023-05-20T16:03:02.538Z,24.38
2023-05-20T16:05:32.693Z,24.29
2023-05-20T16:08:02.985Z,24.32
2023-05-20T16:10:34.853Z,24.32
2023-05-20T16:13:08.138Z,24.29
2023-05-20T16:15:38.811Z,24.26
2023-05-20T16:18:11.530Z,24.25
2023-05-20T16:20:41.724Z,24.20
2023-05-20T16:23:11.772Z,24.20
2023-05-20T16:25:41.657Z,24.21
2023-05-20T16:28:11.665Z,24.21
2023-05-20T16:30:41.714Z,24.25
2023-05-20T16:33:21.506Z,24.30
2023-05-20T16:35:51.613Z,24.31
2023-05-20T16:38:21.996Z,24.27
2023-05-20T16:40:52.253Z,24.22
2023-05-20T16:43:22.176Z,24.13
2023-05-20T16:45:52.339Z,23.95
2023-05-20T16:48:26.929Z,23.89
2023-05-20T16:50:57.003Z,23.82
2023-05-20T16:53:27.388Z,23.84
2023-05-20T16:55:58.027Z,23.82
2023-05-20T16:58:28.246Z,23.72
2023-05-20T17:00:58.414Z,23.69
2023-05-20T17:03:31.241Z,23.66
2023-05-20T17:06:01.268Z,23.64
2023-05-20T17:08:31.930Z,23.61
2023-05-20T17:11:03.155Z,23.59
2023-05-20T17:13:33.236Z,23.52
2023-05-20T17:16:03.260Z,23.43
2023-05-20T17:18:35.882Z,23.38
2023-05-20T17:21:06.173Z,23.29
2023-05-20T17:23:36.162Z,23.20
2023-05-20T17:26:06.642Z,23.07
2023-05-20T17:28:36.601Z,23.03
2023-05-20T17:31:06.741Z,23.03
2023-05-20T17:33:39.949Z,22.95
2023-05-20T17:36:10.663Z,22.90
2023-05-20T17:38:40.756Z,22.86
2023-05-20T17:41:10.982Z,22.75
2023-05-20T17:43:40.964Z,22.72
2023-05-20T17:46:10.927Z,22.73
2023-05-20T17:48:45.079Z,22.63
2023-05-20T17:51:15.160Z,22.58
2023-05-20T17:53:45.130Z,22.58
2023-05-20T17:56:15.968Z,22.48
2023-05-20T17:58:48.381Z,22.35
2023-05-20T18:01:18.441Z,22.35
2023-05-20T18:03:51.304Z,22.24
2023-05-20T18:06:21.464Z,22.19
2023-05-20T18:08:51.853Z,22.10
2023-05-20T18:11:22.243Z,22.06
2023-05-20T18:13:52.467Z,21.97
2023-05-20T18:16:22.538Z,21.90
2023-05-20T18:18:55.220Z,21.75
2023-05-20T18:21:26.754Z,21.79
2023-05-20T18:23:56.715Z,21.84
2023-05-20T18:26:27.153Z,21.89
2023-05-20T18:28:57.137Z,21.90
2023-05-20T18:31:27.285Z,21.82
2023-05-20T18:33:59.868Z,21.81
2023-05-20T18:36:31.989Z,21.79
2023-05-20T18:39:01.912Z,21.78
2023-05-20T18:41:45.820Z,21.77
2023-05-20T18:44:17.786Z,21.76
2023-05-20T18:46:48.099Z,21.76
2023-05-20T18:49:20.694Z,21.71
2023-05-20T18:51:50.752Z,21.68
2023-05-20T18:54:20.688Z,21.63
2023-05-20T18:56:51.504Z,21.54
2023-05-20T18:59:23.293Z,21.44
2023-05-20T19:01:54.460Z,21.34
2023-05-20T19:04:27.449Z,21.28
2023-05-20T19:06:57.655Z,21.22
2023-05-20T19:09:27.591Z,21.14
2023-05-20T19:11:59.324Z,21.06
2023-05-20T19:14:29.424Z,20.97
2023-05-20T19:17:01.116Z,20.91
2023-05-20T19:19:33.871Z,20.84
2023-05-20T19:22:03.867Z,20.71
2023-05-20T19:24:35.482Z,20.68
2023-05-20T19:27:05.923Z,20.66
2023-05-20T19:29:36.040Z,20.61
2023-05-20T19:32:06.234Z,20.60
2023-05-20T19:34:38.827Z,20.56
2023-05-20T19:37:08.969Z,20.55
2023-05-20T19:39:39.266Z,20.51
2023-05-20T19:42:09.355Z,20.48
2023-05-20T19:44:39.329Z,20.46
2023-05-20T19:47:09.476Z,20.42
2023-05-20T19:49:42.174Z,20.34
2023-05-20T19:52:12.395Z,20.31
2023-05-20T19:54:43.249Z,20.32
2023-05-20T19:57:13.624Z,20.25
2023-05-20T19:59:43.777Z,20.20
2023-05-20T20:02:15.083Z,20.16
2023-05-20T20:04:48.115Z,20.12
2023-05-20T20:07:18.015Z,20.10
2023-05-20T20:09:49.294Z,19.99
2023-05-20T20:12:19.399Z,19.90
2023-05-20T20:14:49.467Z,19.87
2023-05-20T20:17:20.716Z,19.84
2023-05-20T20:19:55.965Z,19.84
2023-05-20T20:22:26.090Z,19.80
2023-05-20T20:24:56.104Z,19.75
2023-05-20T20:27:27.156Z,19.71
2023-05-20T20:29:57.357Z,19.68
2023-05-20T20:32:27.552Z,19.64
2023-05-20T20:35:00.918Z,19.58
2023-05-20T20:37:30.918Z,19.51
2023-05-20T20:40:03.916Z,19.42
2023-05-20T20:42:34.083Z,19.35
2023-05-20T20:45:04.556Z,19.30
2023-05-20T20:47:34.711Z,19.28
2023-05-20T20:50:08.160Z,19.21
2023-05-20T20:52:39.180Z,19.15
2023-05-20T20:55:10.187Z,19.11
2023-05-20T20:57:42.249Z,19.05
2023-05-20T21:00:14.466Z,18.94
2023-05-20T21:02:44.517Z,18.86
2023-05-20T21:05:17.752Z,18.82
2023-05-20T21:07:50.314Z,18.78
2023-05-20T21:10:20.905Z,18.72
2023-05-20T21:12:50.894Z,18.63
2023-05-20T21:15:20.896Z,18.53
2023-05-20T21:17:50.891Z,18.43
2023-05-20T21:20:23.679Z,18.41
2023-05-20T21:22:53.724Z,18.39
2023-05-20T21:25:23.695Z,18.34
2023-05-20T21:27:53.639Z,18.28
2023-05-20T21:30:24.803Z,18.23
2023-05-20T21:32:54.800Z,18.21
2023-05-20T21:35:27.392Z,18.23
2023-05-20T21:37:57.472Z,18.22
2023-05-20T21:40:27.408Z,18.21
2023-05-20T21:42:57.376Z,18.19
2023-05-20T21:45:27.292Z,18.17
2023-05-20T21:47:57.448Z,18.11
2023-05-20T21:50:30.222Z,18.04
2023-05-20T21:53:00.152Z,18.00
2023-05-20T21:55:30.106Z,17.97
2023-05-20T21:58:00.082Z,17.97
2023-05-20T22:00:30.199Z,17.94
2023-05-20T22:03:01.384Z,17.94
2023-05-20T22:05:34.869Z,17.88
2023-05-20T22:08:05.145Z,17.87
2023-05-20T22:10:37.885Z,17.88
2023-05-20T22:13:11.163Z,17.89
2023-05-20T22:15:41.152Z,17.85
2023-05-20T22:18:12.638Z,17.80
2023-05-20T22:20:45.259Z,17.74
2023-05-20T22:23:15.232Z,17.69
2023-05-20T22:25:45.312Z,17.61
2023-05-20T22:28:16.475Z,17.53
2023-05-20T22:30:46.718Z,17.45
2023-05-20T22:33:16.940Z,17.38
2023-05-20T22:35:49.530Z,17.34
2023-05-20T22:38:19.501Z,17.32
2023-05-20T22:40:50.733Z,17.28
2023-05-20T22:43:23.448Z,17.28
2023-05-20T22:45:53.522Z,17.27
2023-05-20T22:48:24.165Z,17.27
2023-05-20T22:50:57.033Z,17.27
2023-05-20T22:53:27.243Z,17.24
2023-05-20T22:55:57.186Z,17.22
2023-05-20T22:58:27.165Z,17.18
2023-05-20T23:00:57.287Z,17.14
2023-05-20T23:03:27.395Z,17.06
2023-05-20T23:05:59.901Z,17.05
2023-05-20T23:08:30.092Z,17.00
2023-05-20T23:11:00.283Z,16.94
2023-05-20T23:13:30.251Z,16.93
2023-05-20T23:16:01.648Z,16.89
2023-05-20T23:18:31.635Z,16.80
2023-05-20T23:21:04.599Z,16.71
2023-05-20T23:23:34.634Z,16.67
2023-05-20T23:26:05.369Z,16.65
2023-05-20T23:28:35.340Z,16.64
2023-05-20T23:31:05.445Z,16.61
2023-05-20T23:33:35.484Z,16.57
2023-05-20T23:36:09.550Z,16.55
2023-05-20T23:38:39.683Z,16.54
2023-05-20T23:41:09.708Z,16.59
2023-05-20T23:43:39.767Z,16.63
2023-05-20T23:46:10.022Z,16.61
2023-05-20T23:48:40.062Z,16.60
2023-05-20T23:51:13.770Z,16.63
2023-05-20T23:53:43.901Z,16.60
2023-05-20T23:56:13.815Z,16.56
2023-05-20T23:58:43.836Z,16.54
